Time;durP1;ratioP1;P1;durP2;ratioP2;P2;SDS_P1;SDS_P2;PMS_P1;PMS_P2;Temp;Humidity;BMP_temperature;BMP_pressure;BME280_temperature;BME280_humidity;BME280_pressure;Samples;Min_cycle;Max_cycle;Signal;HPM_P1;HPM_P2
2023/09/20 00:00:11;;;;;;;0.00;0.00;;;;;;;24.08;59.63;100769.66;5049598;28;20033;-69
2023/09/20 00:02:40;;;;;;;0.10;0.10;;;;;;;23.71;59.81;100767.34;5050136;28;20025;-70
2023/09/20 00:05:14;;;;;;;0.03;0.03;;;;;;;23.48;60.97;100775.63;5049375;28;20032;-70
2023/09/20 00:07:40;;;;;;;0.00;0.00;;;;;;;24.32;57.60;100778.34;5048725;28;20063;-70
2023/09/20 00:10:11;;;;;;;0.10;0.10;;;;;;;23.83;58.94;100779.38;5049240;28;20025;-70
2023/09/20 00:12:37;;;;;;;0.00;0.00;;;;;;;23.92;59.27;100766.50;5049335;28;20490;-69
2023/09/20 00:15:02;;;;;;;0.10;0.10;;;;;;;24.01;58.64;100772.03;5049383;28;20053;-70
2023/09/20 00:17:28;;;;;;;0.00;0.00;;;;;;;23.91;59.12;100773.13;5049338;28;20113;-72
2023/09/20 00:19:53;;;;;;;0.00;0.00;;;;;;;23.51;60.47;100768.69;5044478;28;20041;-70
2023/09/20 00:22:20;;;;;;;0.00;0.00;;;;;;;23.81;58.88;100770.66;5029543;28;20034;-69
2023/09/20 00:24:46;;;;;;;0.05;0.05;;;;;;;24.15;57.70;100768.13;5043380;28;20048;-68
2023/09/20 00:27:11;;;;;;;0.00;0.00;;;;;;;23.81;58.96;100772.56;5048978;28;20469;-69
2023/09/20 00:29:37;;;;;;;0.00;0.00;;;;;;;23.94;58.82;100769.75;5050186;28;20033;-70
2023/09/20 00:32:03;;;;;;;0.00;0.00;;;;;;;23.88;59.15;100768.25;5030860;28;20370;-69
2023/09/20 00:34:29;;;;;;;0.00;0.00;;;;;;;25.15;54.85;100761.53;5048844;28;20034;-69
2023/09/20 00:36:54;;;;;;;0.10;0.10;;;;;;;24.52;56.68;100753.03;5049375;28;20103;-71
2023/09/20 00:39:20;;;;;;;0.10;0.10;;;;;;;24.66;56.29;100759.22;5049233;28;20444;-70
2023/09/20 00:41:47;;;;;;;0.00;0.00;;;;;;;24.66;55.82;100758.41;5049311;28;20028;-68
2023/09/20 00:44:14;;;;;;;0.05;0.05;;;;;;;23.81;58.29;100764.34;5049314;28;20052;-69
2023/09/20 00:46:40;;;;;;;0.00;0.00;;;;;;;23.91;58.27;100772.31;5049095;28;20074;-70
2023/09/20 00:49:06;;;;;;;0.00;0.00;;;;;;;24.63;56.20;100745.31;5048975;28;20028;-68
2023/09/20 00:51:31;;;;;;;0.00;0.00;;;;;;;24.51;56.09;100765.13;5049058;28;20033;-69
2023/09/20 00:54:01;;;;;;;0.00;0.00;;;;;;;24.09;57.33;100761.13;5049425;28;20032;-69
2023/09/20 00:56:27;;;;;;;0.10;0.10;;;;;;;24.40;56.38;100761.06;5048929;28;20057;-70
2023/09/20 00:58:55;;;;;;;0.00;0.00;;;;;;;24.27;56.82;100759.28;5049000;28;20407;-69
2023/09/20 01:01:22;;;;;;;0.00;0.00;;;;;;;24.36;56.73;100754.59;5049382;28;20076;-68
2023/09/20 01:03:47;;;;;;;0.00;0.00;;;;;;;24.01;57.30;100750.91;5048957;28;20037;-68
2023/09/20 01:06:15;;;;;;;0.10;0.10;;;;;;;24.85;55.27;100742.44;5048956;28;20494;-68
2023/09/20 01:08:41;;;;;;;0.00;0.00;;;;;;;24.07;57.26;100757.09;5049636;28;20025;-69
2023/09/20 01:11:07;;;;;;;0.00;0.00;;;;;;;24.15;57.31;100751.63;5048901;28;20526;-70
2023/09/20 01:13:32;;;;;;;0.00;0.00;;;;;;;24.93;54.93;100736.94;5048650;28;20572;-69
2023/09/20 01:16:01;;;;;;;0.00;0.00;;;;;;;23.98;57.95;100743.28;5056736;28;20072;-69
2023/09/20 01:18:27;;;;;;;0.10;0.10;;;;;;;24.57;56.16;100758.38;5049327;28;20035;-70
2023/09/20 01:20:52;;;;;;;0.00;0.00;;;;;;;24.69;55.00;100733.81;5053159;28;20029;-69
2023/09/20 01:23:18;;;;;;;0.00;0.00;;;;;;;24.09;56.92;100733.69;5052168;28;20091;-71
2023/09/20 01:25:44;;;;;;;0.00;0.00;;;;;;;24.53;56.30;100767.59;5052227;28;20032;-71
2023/09/20 01:28:10;;;;;;;0.00;0.00;;;;;;;24.20;57.34;100762.47;5053126;28;20116;-69
2023/09/20 01:30:38;;;;;;;0.00;0.00;;;;;;;24.84;55.34;100754.56;5052431;28;20079;-70
2023/09/20 01:33:06;;;;;;;0.10;0.10;;;;;;;24.56;56.38;100758.69;5052674;28;20035;-69
2023/09/20 01:35:32;;;;;;;0.08;0.08;;;;;;;24.24;56.99;100759.88;5052330;28;20033;-69
2023/09/20 01:37:58;;;;;;;0.00;0.00;;;;;;;24.79;55.34;100739.03;5052091;28;20072;-69
2023/09/20 01:40:26;;;;;;;0.00;0.00;;;;;;;24.56;56.21;100758.69;5051969;28;20033;-69
2023/09/20 01:42:52;;;;;;;0.00;0.00;;;;;;;25.40;53.29;100753.59;5051698;28;20051;-69
2023/09/20 01:45:19;;;;;;;0.00;0.00;;;;;;;25.32;53.50;100749.69;5052149;28;20574;-69
2023/09/20 01:47:53;;;;;;;0.00;0.00;;;;;;;25.19;54.20;100756.19;5052787;28;20094;-69
2023/09/20 01:50:20;;;;;;;0.00;0.00;;;;;;;24.59;54.93;100741.59;5052028;28;20049;-68
2023/09/20 01:52:50;;;;;;;0.00;0.00;;;;;;;25.68;52.25;100736.41;5051880;28;20029;-70
2023/09/20 01:55:22;;;;;;;0.00;0.00;;;;;;;24.56;55.36;100744.94;5051987;28;20108;-68
2023/09/20 01:57:48;;;;;;;0.00;0.00;;;;;;;24.99;54.23;100735.66;5051811;28;20450;-69
2023/09/20 02:00:28;;;;;;;0.00;0.00;;;;;;;24.51;55.91;100736.88;5051983;28;20113;-70
2023/09/20 02:02:55;;;;;;;0.03;0.03;;;;;;;24.43;56.25;100736.53;5051939;28;20545;-69
2023/09/20 02:05:23;;;;;;;0.00;0.00;;;;;;;24.73;55.23;100729.31;5051951;28;20041;-70
2023/09/20 02:07:50;;;;;;;0.00;0.00;;;;;;;24.66;55.32;100739.16;5051658;28;20037;-69
2023/09/20 02:10:16;;;;;;;0.00;0.00;;;;;;;24.69;55.56;100738.50;5055663;28;20029;-70
2023/09/20 02:12:51;;;;;;;0.10;0.10;;;;;;;24.77;55.26;100743.22;5058866;28;20583;-70
2023/09/20 02:15:17;;;;;;;0.00;0.00;;;;;;;25.32;53.50;100740.66;5029026;28;20464;-70
2023/09/20 02:17:44;;;;;;;0.10;0.10;;;;;;;24.50;55.88;100732.50;5032178;28;20292;-70
2023/09/20 02:20:11;;;;;;;0.00;0.00;;;;;;;25.03;54.25;100744.06;5048600;28;20060;-69
2023/09/20 02:22:40;;;;;;;0.00;0.00;;;;;;;25.03;53.94;100739.38;5051589;28;20041;-69
2023/09/20 02:25:11;;;;;;;0.00;0.00;;;;;;;24.56;54.83;100740.28;5051067;28;20033;-68
2023/09/20 02:27:43;;;;;;;0.10;0.10;;;;;;;24.86;54.22;100750.38;5051330;28;20032;-69
2023/09/20 02:30:16;;;;;;;0.00;0.00;;;;;;;25.13;53.85;100736.31;5032212;28;20041;-69
2023/09/20 02:32:42;;;;;;;0.00;0.00;;;;;;;24.75;54.81;100740.00;5052368;28;20047;-70
2023/09/20 02:35:09;;;;;;;0.00;0.00;;;;;;;24.43;55.50;100744.75;5032643;28;20028;-70
2023/09/20 02:37:35;;;;;;;0.05;0.05;;;;;;;24.48;55.56;100746.56;5032812;28;20072;-70
2023/09/20 02:40:07;;;;;;;0.00;0.00;;;;;;;24.51;55.52;100736.88;5051382;28;20032;-70
2023/09/20 02:42:39;;;;;;;0.03;0.03;;;;;;;25.30;53.72;100742.94;5051359;28;20521;-69
2023/09/20 02:45:05;;;;;;;0.05;0.05;;;;;;;24.73;54.33;100748.56;5051144;28;20378;-67
2023/09/20 02:47:31;;;;;;;0.00;0.00;;;;;;;24.91;54.11;100730.97;5051420;28;20021;-69
2023/09/20 02:49:56;;;;;;;0.00;0.00;;;;;;;26.01;51.06;100729.16;5051050;28;20033;-71
2023/09/20 02:52:21;;;;;;;0.00;0.00;;;;;;;25.66;51.65;100721.34;5051218;28;20036;-68
2023/09/20 02:54:48;;;;;;;0.00;0.00;;;;;;;25.45;51.92;100718.50;5051392;28;20426;-69
2023/09/20 02:57:13;;;;;;;0.00;0.00;;;;;;;25.68;51.62;100727.31;5050940;28;20064;-70
2023/09/20 02:59:39;;;;;;;0.10;0.10;;;;;;;26.23;50.16;100725.34;5052310;28;20037;-70
2023/09/20 03:02:05;;;;;;;0.00;0.00;;;;;;;25.61;52.05;100705.81;5051497;28;20033;-70
2023/09/20 03:04:31;;;;;;;0.00;0.00;;;;;;;25.09;53.37;100707.03;5051200;28;20044;-70
2023/09/20 03:06:56;;;;;;;0.05;0.05;;;;;;;25.35;52.19;100701.47;5058245;28;20052;-70
2023/09/20 03:09:24;;;;;;;0.00;0.00;;;;;;;24.81;54.20;100698.28;5059520;28;20531;-69
2023/09/20 03:11:51;;;;;;;0.10;0.10;;;;;;;24.27;56.13;100694.13;5050990;28;20108;-68
2023/09/20 03:14:16;;;;;;;0.00;0.00;;;;;;;24.17;55.52;100685.41;5050207;28;20044;-69
2023/09/20 03:16:43;;;;;;;0.10;0.10;;;;;;;24.62;54.69;100684.03;5050106;28;20045;-70
2023/09/20 03:19:09;;;;;;;0.00;0.00;;;;;;;24.64;54.38;100697.44;5050114;28;20521;-70
2023/09/20 03:21:35;;;;;;;0.00;0.00;;;;;;;25.58;51.77;100689.16;5054366;28;20029;-71
2023/09/20 03:24:05;;;;;;;0.03;0.03;;;;;;;24.56;54.70;100685.31;5062140;28;20055;-69
2023/09/20 03:26:32;;;;;;;0.00;0.00;;;;;;;24.30;55.54;100684.47;5050189;28;20055;-70
2023/09/20 03:28:57;;;;;;;0.00;0.00;;;;;;;24.48;54.87;100686.13;5041049;28;20049;-70
2023/09/20 03:31:23;;;;;;;0.00;0.00;;;;;;;24.20;55.84;100676.50;5051598;28;20045;-70
2023/09/20 03:33:49;;;;;;;0.10;0.10;;;;;;;23.84;56.82;100681.38;5069678;28;20033;-69
2023/09/20 03:36:17;;;;;;;0.10;0.10;;;;;;;24.16;55.98;100678.28;5070117;28;20039;-71
2023/09/20 03:38:43;;;;;;;0.00;0.00;;;;;;;25.04;53.15;100685.19;5070182;28;20024;-69
2023/09/20 03:41:09;;;;;;;0.10;0.10;;;;;;;24.26;55.52;100681.53;5069606;28;20441;-70
2023/09/20 03:43:34;;;;;;;0.00;0.00;;;;;;;24.73;54.16;100679.84;5051601;28;20033;-69
2023/09/20 03:46:01;;;;;;;0.10;0.10;;;;;;;24.16;55.62;100681.84;5069742;28;20040;-69
2023/09/20 03:48:27;;;;;;;0.00;0.00;;;;;;;24.28;54.82;100687.53;5069424;28;20091;-70
2023/09/20 03:50:52;;;;;;;0.10;0.10;;;;;;;24.01;56.10;100668.53;5070165;28;20020;-69
2023/09/20 03:53:18;;;;;;;0.10;0.10;;;;;;;24.69;54.24;100673.34;5069578;28;20039;-70
2023/09/20 03:55:45;;;;;;;0.10;0.10;;;;;;;24.62;54.68;100662.03;5069579;28;20036;-70
2023/09/20 03:58:11;;;;;;;0.10;0.10;;;;;;;24.51;54.23;100671.72;5069357;28;20032;-70
2023/09/20 04:00:38;;;;;;;0.10;0.10;;;;;;;24.70;53.91;100677.72;5069332;28;20032;-70
2023/09/20 04:03:12;;;;;;;0.10;0.10;;;;;;;24.06;55.62;100682.13;5053786;28;20071;-69
2023/09/20 04:05:38;;;;;;;0.08;0.08;;;;;;;23.70;57.39;100675.19;5049370;28;20051;-70
2023/09/20 04:08:06;;;;;;;0.00;0.00;;;;;;;24.36;54.91;100670.25;5047294;28;20041;-69
2023/09/20 04:10:31;;;;;;;0.05;0.05;;;;;;;25.61;50.82;100666.47;5048910;28;20076;-71
2023/09/20 04:12:57;;;;;;;0.10;0.10;;;;;;;25.33;51.58;100668.81;5048578;28;20392;-70
2023/09/20 04:15:24;;;;;;;0.00;0.00;;;;;;;24.93;52.70;100668.22;5052368;28;20491;-70
2023/09/20 04:17:49;;;;;;;0.10;0.10;;;;;;;24.62;54.19;100666.72;5068724;28;20025;-70
2023/09/20 04:20:14;;;;;;;0.05;0.05;;;;;;;24.69;53.62;100658.78;5061426;28;20116;-70
2023/09/20 04:22:41;;;;;;;0.08;0.08;;;;;;;24.17;55.36;100657.94;5049339;28;20029;-69
2023/09/20 04:25:07;;;;;;;0.00;0.00;;;;;;;24.06;56.30;100656.59;5031081;28;20511;-69
2023/09/20 04:27:32;;;;;;;0.08;0.08;;;;;;;24.78;53.58;100649.47;5049126;28;20029;-68
2023/09/20 04:29:58;;;;;;;0.00;0.00;;;;;;;24.50;54.36;100644.56;5049354;28;20357;-70
2023/09/20 04:32:23;;;;;;;0.00;0.00;;;;;;;24.31;55.92;100642.94;5049238;28;20735;-68
2023/09/20 04:34:52;;;;;;;0.10;0.10;;;;;;;24.29;55.31;100653.44;5049291;28;20044;-69
2023/09/20 04:37:17;;;;;;;0.00;0.00;;;;;;;24.83;53.65;100643.78;5049027;28;20026;-69
2023/09/20 04:39:43;;;;;;;0.10;0.10;;;;;;;23.92;56.35;100645.72;5030530;28;20082;-70
2023/09/20 04:42:12;;;;;;;0.10;0.10;;;;;;;25.26;52.29;100657.47;5049341;28;20032;-70
2023/09/20 04:44:38;;;;;;;0.10;0.10;;;;;;;24.04;55.85;100656.13;5049211;28;20112;-70
2023/09/20 04:47:03;;;;;;;0.08;0.08;;;;;;;24.13;56.19;100649.53;5030881;28;20040;-69
2023/09/20 04:49:29;;;;;;;0.10;0.10;;;;;;;24.51;54.58;100649.72;5048932;28;20041;-69
2023/09/20 04:51:54;;;;;;;0.05;0.05;;;;;;;25.62;51.41;100646.06;5049099;28;20041;-70
2023/09/20 04:54:22;;;;;;;0.10;0.10;;;;;;;26.00;49.77;100641.38;5051094;28;20060;-69
2023/09/20 04:56:47;;;;;;;0.10;0.10;;;;;;;26.10;49.64;100636.28;5053084;28;20033;-69
2023/09/20 04:59:16;;;;;;;0.10;0.10;;;;;;;26.05;49.66;100638.41;5058091;28;20044;-70
2023/09/20 05:01:42;;;;;;;0.10;0.10;;;;;;;25.45;51.38;100655.22;5062873;28;20549;-70
2023/09/20 05:04:12;;;;;;;0.05;0.05;;;;;;;24.98;52.83;100651.53;5052571;28;20037;-70
2023/09/20 05:06:38;;;;;;;0.08;0.08;;;;;;;25.94;50.14;100649.00;5053007;28;20033;-69
2023/09/20 05:09:03;;;;;;;0.10;0.10;;;;;;;25.91;50.32;100657.91;5053171;28;20046;-69
2023/09/20 05:11:29;;;;;;;0.10;0.10;;;;;;;25.11;52.80;100658.00;5052570;28;20037;-69
2023/09/20 05:13:54;;;;;;;0.03;0.03;;;;;;;24.89;53.53;100663.69;5052222;28;20056;-69
2023/09/20 05:16:20;;;;;;;0.10;0.10;;;;;;;25.76;50.93;100650.22;5042585;28;20054;-69
2023/09/20 05:18:46;;;;;;;0.10;0.10;;;;;;;25.19;52.58;100647.00;5031786;28;20192;-70
2023/09/20 05:21:12;;;;;;;0.10;0.10;;;;;;;25.25;52.76;100650.38;5036898;28;20098;-68
2023/09/20 05:23:40;;;;;;;0.08;0.08;;;;;;;24.94;53.05;100656.06;5041110;28;20021;-68
2023/09/20 05:26:05;;;;;;;0.05;0.05;;;;;;;25.05;53.54;100656.53;5038360;28;20045;-69
2023/09/20 05:28:31;;;;;;;0.10;0.10;;;;;;;25.14;52.59;100655.41;5032489;28;20585;-69
2023/09/20 05:30:57;;;;;;;0.10;0.10;;;;;;;25.36;51.95;100643.38;5030641;28;20042;-69
2023/09/20 05:33:23;;;;;;;0.10;0.10;;;;;;;25.13;52.66;100637.28;5036223;28;20082;-70
2023/09/20 05:35:49;;;;;;;0.10;0.10;;;;;;;25.39;51.94;100631.72;5031945;28;20109;-69
2023/09/20 05:38:17;;;;;;;0.03;0.03;;;;;;;25.34;52.45;100637.38;5031718;28;20044;-70
2023/09/20 05:40:43;;;;;;;0.10;0.10;;;;;;;25.17;52.48;100635.50;5031495;28;20141;-69
2023/09/20 05:43:08;;;;;;;0.00;0.00;;;;;;;25.45;51.78;100644.19;5013272;28;20037;-72
2023/09/20 05:45:35;;;;;;;0.10;0.10;;;;;;;23.95;57.19;100631.38;5031187;28;20400;-70
2023/09/20 05:48:01;;;;;;;0.10;0.10;;;;;;;24.78;54.68;100626.66;5042313;28;20029;-69
2023/09/20 05:50:35;;;;;;;0.10;0.10;;;;;;;24.31;56.08;100626.44;5040289;28;20485;-69
2023/09/20 05:53:11;;;;;;;0.10;0.10;;;;;;;24.60;54.64;100628.59;5034127;28;20041;-70
2023/09/20 05:55:43;;;;;;;0.10;0.10;;;;;;;24.39;56.35;100641.34;5032890;28;20102;-71
2023/09/20 05:58:09;;;;;;;0.10;0.10;;;;;;;24.98;54.42;100640.53;5037074;28;20500;-70
2023/09/20 06:00:35;;;;;;;0.10;0.10;;;;;;;24.32;56.50;100641.00;5038766;28;20044;-70
2023/09/20 06:03:00;;;;;;;0.10;0.10;;;;;;;24.40;56.35;100643.78;5037552;28;20033;-70
2023/09/20 06:05:26;;;;;;;0.10;0.10;;;;;;;24.51;56.31;100651.69;5030063;28;20206;-70
2023/09/20 06:07:53;;;;;;;0.10;0.10;;;;;;;25.67;51.91;100637.66;5031392;28;20485;-70
2023/09/20 06:10:20;;;;;;;0.10;0.10;;;;;;;25.13;53.94;100642.78;5025230;28;20492;-70
2023/09/20 06:12:46;;;;;;;0.00;0.00;;;;;;;24.85;54.51;100637.97;5030458;28;20036;-70
2023/09/20 06:15:15;;;;;;;0.10;0.10;;;;;;;24.46;55.49;100640.84;5009544;28;20094;-71
2023/09/20 06:17:47;;;;;;;0.10;0.10;;;;;;;25.05;54.18;100638.13;5058856;28;20048;-71
2023/09/20 06:20:12;;;;;;;0.10;0.10;;;;;;;24.52;56.21;100645.06;5032231;28;20129;-71
2023/09/20 06:22:41;;;;;;;0.10;0.10;;;;;;;24.43;56.88;100648.59;5029004;28;20064;-69
2023/09/20 06:25:07;;;;;;;0.10;0.10;;;;;;;23.88;58.50;100649.44;5029457;28;20079;-70
2023/09/20 06:27:34;;;;;;;0.10;0.10;;;;;;;25.03;54.82;100647.81;5042820;28;20128;-69
2023/09/20 06:30:05;;;;;;;0.10;0.10;;;;;;;24.85;54.81;100655.28;5031280;28;20033;-69
2023/09/20 06:32:33;;;;;;;0.10;0.10;;;;;;;24.35;56.64;100645.88;5038597;28;20056;-70
2023/09/20 06:34:59;;;;;;;0.10;0.10;;;;;;;25.24;54.60;100652.31;5030408;28;20108;-69
2023/09/20 06:37:25;;;;;;;0.00;0.00;;;;;;;25.42;53.54;100649.53;5041821;28;20037;-68
2023/09/20 06:39:51;;;;;;;0.10;0.10;;;;;;;24.67;55.44;100653.63;5037431;28;20084;-69
2023/09/20 06:42:17;;;;;;;0.00;0.00;;;;;;;24.91;55.62;100651.22;5048908;28;20102;-69
2023/09/20 06:44:44;;;;;;;0.10;0.10;;;;;;;26.18;51.40;100653.91;5048796;28;20301;-69
2023/09/20 06:47:10;;;;;;;0.10;0.10;;;;;;;26.26;51.42;100646.75;5049086;28;20111;-71
2023/09/20 06:49:38;;;;;;;0.03;0.03;;;;;;;26.51;50.08;100635.53;5048600;28;20503;-71
2023/09/20 06:52:04;;;;;;;0.00;0.00;;;;;;;25.68;52.51;100644.75;5048510;28;20519;-71
2023/09/20 06:54:30;;;;;;;0.00;0.00;;;;;;;24.90;54.45;100643.31;5049238;28;20052;-70
2023/09/20 06:57:02;;;;;;;0.00;0.00;;;;;;;25.39;53.28;100636.41;5060483;28;20594;-69
2023/09/20 06:59:33;;;;;;;0.08;0.08;;;;;;;25.73;52.58;100637.09;5028288;28;20042;-68
2023/09/20 07:01:59;;;;;;;0.00;0.00;;;;;;;25.08;53.83;100648.44;5056573;28;20028;-69
2023/09/20 07:04:25;;;;;;;0.00;0.00;;;;;;;25.39;53.30;100639.97;5045296;28;20042;-70
2023/09/20 07:06:55;;;;;;;0.00;0.00;;;;;;;25.62;52.81;100637.81;5038923;28;20442;-71
2023/09/20 07:09:21;;;;;;;0.00;0.00;;;;;;;25.83;52.61;100642.25;5050064;28;20052;-71
2023/09/20 07:11:50;;;;;;;0.10;0.10;;;;;;;26.11;51.30;100639.84;5055900;28;20021;-70
2023/09/20 07:14:26;;;;;;;0.00;0.00;;;;;;;26.19;51.17;100638.19;5051836;28;20030;-70
2023/09/20 07:16:51;;;;;;;0.10;0.10;;;;;;;25.96;52.17;100640.41;5050079;28;20049;-70
2023/09/20 07:19:18;;;;;;;0.00;0.00;;;;;;;25.30;53.41;100639.19;5043345;28;20582;-71
2023/09/20 07:21:47;;;;;;;0.00;0.00;;;;;;;25.61;53.27;100644.47;5038219;28;20055;-71
2023/09/20 07:24:12;;;;;;;0.10;0.10;;;;;;;26.36;50.88;100638.09;5041935;28;20075;-70
2023/09/20 07:26:39;;;;;;;0.00;0.00;;;;;;;25.99;51.44;100645.25;5044486;28;20028;-71
2023/09/20 07:29:05;;;;;;;0.00;0.00;;;;;;;25.30;53.56;100646.66;5047489;28;20463;-70
2023/09/20 07:31:36;;;;;;;0.00;0.00;;;;;;;26.73;49.95;100637.94;5019769;28;20521;-72
2023/09/20 07:34:03;;;;;;;0.10;0.10;;;;;;;26.23;51.53;100637.19;5032873;28;20033;-70
2023/09/20 07:36:29;;;;;;;0.03;0.03;;;;;;;25.97;51.09;100637.31;5048335;28;20120;-71
2023/09/20 07:38:56;;;;;;;0.00;0.00;;;;;;;27.01;49.58;100638.19;5038769;28;20111;-71
2023/09/20 07:41:22;;;;;;;0.00;0.00;;;;;;;26.06;51.54;100632.59;5023770;28;20045;-72
2023/09/20 07:43:47;;;;;;;0.00;0.00;;;;;;;25.13;53.82;100640.03;5008612;28;20033;-70
2023/09/20 07:46:14;;;;;;;0.00;0.00;;;;;;;25.71;52.87;100646.84;4991083;28;20119;-70
2023/09/20 07:48:48;;;;;;;0.00;0.00;;;;;;;26.32;51.83;100645.41;5008970;28;20042;-71
2023/09/20 07:51:14;;;;;;;0.00;0.00;;;;;;;26.91;49.81;100642.19;5023040;28;20550;-69
2023/09/20 07:53:40;;;;;;;0.00;0.00;;;;;;;26.81;50.00;100636.28;5029013;28;20503;-71
2023/09/20 07:56:11;;;;;;;0.00;0.00;;;;;;;27.00;49.48;100641.28;5020295;28;20030;-69
2023/09/20 07:58:36;;;;;;;0.00;0.00;;;;;;;26.35;51.25;100648.28;5027256;28;20133;-70
2023/09/20 08:01:10;;;;;;;0.00;0.00;;;;;;;25.25;54.42;100651.19;5008359;28;20260;-70
2023/09/20 08:03:38;;;;;;;0.00;0.00;;;;;;;25.14;54.72;100641.66;5013545;28;20073;-69
2023/09/20 08:06:08;;;;;;;0.00;0.00;;;;;;;25.66;53.33;100656.09;5033142;28;20047;-70
2023/09/20 08:08:35;;;;;;;0.00;0.00;;;;;;;25.84;52.58;100640.31;5042842;28;20653;-69
2023/09/20 08:11:01;;;;;;;0.00;0.00;;;;;;;25.12;54.32;100643.09;5037101;28;20033;-71
2023/09/20 08:13:26;;;;;;;0.00;0.00;;;;;;;25.03;55.36;100656.88;5035862;28;20037;-68
2023/09/20 08:15:52;;;;;;;0.00;0.00;;;;;;;24.61;56.50;100657.66;5037521;28;20060;-72
2023/09/20 08:21:03;;;;;;;0.00;0.00;;;;;;;25.81;52.96;100662.97;5044689;28;20087;-71
2023/09/20 09:02:16;;;;;;;0.00;0.00;;;;;;;25.24;54.39;100677.06;5051545;28;20543;-71
2023/09/20 09:04:44;;;;;;;0.00;0.00;;;;;;;25.50;53.87;100679.78;5026876;28;20069;-71
2023/09/20 09:07:10;;;;;;;0.00;0.00;;;;;;;26.62;50.64;100674.50;5028211;28;20029;-72
2023/09/20 09:09:36;;;;;;;0.00;0.00;;;;;;;27.25;49.26;100684.38;5027831;28;20038;-72
2023/09/20 09:12:01;;;;;;;0.00;0.00;;;;;;;27.48;48.93;100680.91;5027819;28;20058;-71
2023/09/20 09:14:27;;;;;;;0.00;0.00;;;;;;;26.14;51.96;100687.97;5035975;28;20032;-72
2023/09/20 09:17:04;;;;;;;0.00;0.00;;;;;;;25.87;53.13;100687.25;5035872;28;20050;-72
2023/09/20 09:19:30;;;;;;;0.00;0.00;;;;;;;25.30;54.97;100679.66;5037794;28;20562;-71
2023/09/20 09:21:59;;;;;;;0.00;0.00;;;;;;;25.89;53.49;100678.66;5025295;28;20037;-70
2023/09/20 09:24:27;;;;;;;0.05;0.05;;;;;;;26.69;51.24;100655.50;5028785;28;20033;-71
2023/09/20 09:27:06;;;;;;;0.00;0.00;;;;;;;26.20;52.25;100668.16;5042718;28;20438;-69
2023/09/20 09:29:32;;;;;;;0.00;0.00;;;;;;;25.75;53.55;100667.09;5066572;28;20037;-70
2023/09/20 09:32:00;;;;;;;0.00;0.00;;;;;;;26.28;52.37;100664.53;5032894;28;20423;-72
2023/09/20 09:34:26;;;;;;;0.00;0.00;;;;;;;27.28;49.53;100658.88;5038138;28;20045;-71
2023/09/20 09:36:53;;;;;;;0.00;0.00;;;;;;;27.69;47.59;100661.50;5026786;28;20080;-71
2023/09/20 09:39:19;;;;;;;0.00;0.00;;;;;;;27.12;49.40;100657.88;5037803;28;20038;-71
2023/09/20 09:41:46;;;;;;;0.00;0.00;;;;;;;26.45;51.51;100656.16;5039203;28;20143;-72
2023/09/20 09:44:11;;;;;;;0.00;0.00;;;;;;;25.94;53.17;100668.28;5050375;28;20492;-73
2023/09/20 09:46:41;;;;;;;0.00;0.00;;;;;;;26.38;52.60;100658.63;5045611;28;20049;-72
2023/09/20 09:49:11;;;;;;;0.00;0.00;;;;;;;26.77;50.14;100660.94;5070897;28;20098;-72
2023/09/20 09:51:46;;;;;;;;;;;;;;;27.50;49.14;100652.94;5059829;28;20045;-72
2023/09/20 09:54:13;;;;;;;0.00;0.00;;;;;;;27.01;48.71;100648.44;5054966;28;19995;-70
2023/09/20 09:56:39;;;;;;;0.00;0.00;;;;;;;26.91;49.84;100627.56;5049707;28;20029;-72
2023/09/20 09:59:05;;;;;;;0.00;0.00;;;;;;;27.10;49.29;100633.41;5035624;28;20599;-73
2023/09/20 10:01:36;;;;;;;0.00;0.00;;;;;;;26.81;50.76;100644.56;5028913;28;20416;-72
2023/09/20 10:04:07;;;;;;;0.00;0.00;;;;;;;27.22;48.90;100641.72;5058156;28;20044;-72
2023/09/20 10:06:35;;;;;;;0.00;0.00;;;;;;;26.77;50.20;100644.41;5059755;28;20037;-72
2023/09/20 10:09:08;;;;;;;0.00;0.00;;;;;;;27.82;47.95;100643.78;5040915;28;20104;-73
2023/09/20 10:11:34;;;;;;;0.00;0.00;;;;;;;27.05;49.74;100630.84;5060303;28;20041;-72
2023/09/20 10:14:01;;;;;;;0.00;0.00;;;;;;;26.68;50.86;100634.56;5038822;28;20500;-71
2023/09/20 10:16:28;;;;;;;0.00;0.00;;;;;;;25.84;53.21;100645.81;5034123;28;20188;-72
2023/09/20 10:18:53;;;;;;;0.00;0.00;;;;;;;25.80;53.28;100650.38;5047275;28;20029;-72
2023/09/20 10:21:24;;;;;;;0.00;0.00;;;;;;;27.75;48.81;100647.09;5044663;28;20399;-71
2023/09/20 10:24:02;;;;;;;0.00;0.00;;;;;;;26.82;50.55;100649.72;5050223;28;20506;-71
2023/09/20 10:26:32;;;;;;;0.00;0.00;;;;;;;27.08;50.12;100652.25;5005788;28;20396;-72
2023/09/20 10:29:17;;;;;;;;;;;;;;;27.27;49.14;100652.53;5018023;28;20573;-72
2023/09/20 10:31:43;;;;;;;0.00;0.00;;;;;;;26.79;50.97;100646.84;5029032;28;20016;-72
2023/09/20 10:34:09;;;;;;;0.00;0.00;;;;;;;28.35;47.08;100645.47;5037708;28;20150;-71
2023/09/20 10:36:35;;;;;;;0.00;0.00;;;;;;;28.22;46.96;100654.97;5027929;28;20037;-71
2023/09/20 10:39:17;;;;;;;0.00;0.00;;;;;;;26.94;49.26;100646.22;5026171;28;20052;-71
2023/09/20 10:41:44;;;;;;;0.00;0.00;;;;;;;27.35;48.84;100650.84;5040618;28;20037;-73
2023/09/20 10:44:35;;;;;;;0.00;0.00;;;;;;;27.48;48.50;100652.47;5019390;28;20037;-72
2023/09/20 10:47:16;;;;;;;0.00;0.00;;;;;;;26.66;50.56;100645.94;5048970;28;20040;-71
2023/09/20 10:49:52;;;;;;;;;;;;;;;26.88;49.89;100656.66;5040577;28;20139;-70
2023/09/20 10:52:38;;;;;;;0.00;0.00;;;;;;;26.65;50.27;100651.81;5018029;28;19924;-71
2023/09/20 10:55:17;;;;;;;0.00;0.00;;;;;;;27.34;48.80;100639.00;5009947;28;20049;-71
2023/09/20 10:57:43;;;;;;;0.00;0.00;;;;;;;26.66;50.88;100637.66;5017591;28;20387;-72
2023/09/20 11:00:09;;;;;;;0.00;0.00;;;;;;;26.54;50.89;100623.00;5027624;28;20037;-72
2023/09/20 11:02:38;;;;;;;0.00;0.00;;;;;;;26.94;49.60;100629.66;5018138;28;20236;-72
2023/09/20 11:05:07;;;;;;;0.00;0.00;;;;;;;28.01;46.20;100623.91;5028635;28;20029;-72
2023/09/20 11:07:32;;;;;;;0.00;0.00;;;;;;;27.25;48.54;100621.72;5010204;28;20042;-71
2023/09/20 11:09:59;;;;;;;0.00;0.00;;;;;;;27.29;48.05;100624.59;5008629;28;20033;-72
2023/09/20 11:12:24;;;;;;;0.00;0.00;;;;;;;27.37;47.97;100613.50;5008913;28;20038;-71
2023/09/20 11:14:51;;;;;;;0.00;0.00;;;;;;;28.30;46.01;100605.09;5014501;28;20485;-72
2023/09/20 11:17:18;;;;;;;0.00;0.00;;;;;;;28.87;44.69;100607.56;5010805;28;20062;-72
2023/09/20 11:19:44;;;;;;;0.00;0.00;;;;;;;29.01;43.65;100618.22;5009043;28;20129;-72
2023/09/20 11:22:10;;;;;;;0.00;0.00;;;;;;;29.04;43.58;100617.50;5008406;28;20042;-73
2023/09/20 11:24:40;;;;;;;0.00;0.00;;;;;;;29.51;42.73;100610.06;5008451;28;20559;-73
2023/09/20 11:27:05;;;;;;;0.00;0.00;;;;;;;28.68;44.65;100606.63;5008749;28;20461;-70
2023/09/20 11:29:36;;;;;;;0.00;0.00;;;;;;;29.01;44.72;100607.94;5008671;28;20050;-72
2023/09/20 11:32:01;;;;;;;;;;;;;;;27.49;47.30;100605.22;5010890;28;20041;-70
2023/09/20 11:34:47;;;;;;;0.00;0.00;;;;;;;28.92;44.49;100598.19;5003470;28;19917;-72
2023/09/20 11:37:21;;;;;;;0.00;0.00;;;;;;;29.61;43.37;100601.22;5006172;28;20042;-72
2023/09/20 11:39:50;;;;;;;0.00;0.00;;;;;;;27.87;46.30;100601.31;5007673;28;20038;-71
2023/09/20 11:42:32;;;;;;;0.00;0.00;;;;;;;29.57;43.20;100594.81;5007772;28;20158;-71
2023/09/20 11:45:05;;;;;;;0.00;0.00;;;;;;;28.68;44.43;100599.09;5008514;28;20038;-73
2023/09/20 11:47:33;;;;;;;0.00;0.00;;;;;;;27.88;47.05;100594.63;5008323;28;20049;-73
2023/09/20 11:49:59;;;;;;;0.00;0.00;;;;;;;27.76;47.76;100587.97;4991118;28;20171;-72
2023/09/20 11:52:25;;;;;;;0.00;0.00;;;;;;;29.64;43.22;100588.63;5007831;28;20045;-72
2023/09/20 11:54:55;;;;;;;0.00;0.00;;;;;;;29.01;44.75;100583.03;5007660;28;20036;-72
2023/09/20 11:57:23;;;;;;;0.00;0.00;;;;;;;30.02;41.68;100577.69;5005349;28;20017;-74
2023/09/20 11:59:49;;;;;;;0.00;0.00;;;;;;;30.57;41.03;100579.28;5008704;28;20029;-73
2023/09/20 12:02:14;;;;;;;0.00;0.00;;;;;;;30.16;42.03;100564.13;5009855;28;20052;-73
2023/09/20 12:04:39;;;;;;;0.00;0.00;;;;;;;30.21;40.87;100569.41;5008815;28;20042;-73
2023/09/20 12:07:08;;;;;;;0.00;0.00;;;;;;;29.50;42.54;100564.16;5007399;28;20037;-71
2023/09/20 12:09:35;;;;;;;0.00;0.00;;;;;;;28.86;43.66;100556.16;5007169;28;20030;-72